RAAF Base Amberley

YAMB · Queensland, 澳大利亚

罗盘
风向 的 风向 的 风向 到 风向 210° RAAF Base Amberley 15/33
风: 4 kt, 2 beaufort

3 kt

3 kt
改变
0 ft 1.000 2.000 3.000 4.000 5.000
CAVOK
METAR YAMB 130030Z 21004KT 160V230 CAVOK 18/05 Q1018 RF00.0/000.0

METAR RAAF Base Amberley - YAMB

RAAF Base Amberley是,澳大利亚中的中型机场。 该机场位于纬度-27,63744和经度152,71243。 该机场有2条跑道: 15/33 和 4/22. 本场的ICAO机场代码为YAMB。 机场在Brisbane FIR中。

该航空气象观测是针对RAAF Base Amberley在2024年6月13日 10:30, 当地时间进行的。

机场观察

风向为210°,速度为4 kt。 风向在160°和230°之间变化。

天气为CAVOK。这意味着在5.000 ft或MSA(最低安全高度)以下(以较高者为准)以下没有云。这也意味着没有观测到积雨云或高耸的积云,可见度为10 km 或者更多或更高。此外,不会有雾,降雨或其他重要天气。

温度和风寒是18 °C。 露点为5 °C,相对湿度为43%。 海平面上的气压为1018 hPa (QNH)。

白天

今天,太阳从06:36升起,在17:01降落。 这适用于RAAF Base Amberley,世界夏令时可能有所不同。 当地时间与世界标准时间之间的时差为+10 小时。 夏令时目前正在进行中。

公司介绍

我们没有关于这个机场的公司信息。

体会

到Vliegles.nl去找飞行课程,跳伞和其他飞行体验。 浏览页面,了解RAAF Base Amberley附近所有可用的活动。 你也可以使用搜索功能来寻找你所在地附近的特定飞行课程、跳伞或其他飞行体验。

跑道

Id 标题 侧风 逆风 侧风 %
15/33 159°-339° 3 kt 3 kt 78 %
4/22 054°-234° 2 kt 4 kt 41 %

逆风成分最大的方向会被突出显示,并用于横风计算。 这并不一定意味着这个方向在使用。

温度 & 天气

温度 18 °C
露点 5 °C
相对湿度 43%
Kp-index 0 (0-9)

白天

日出
06:36
中午
11:49
日落
17:01 (6:05)

小工具

你想在你的网站上有一个关于RAAF Base Amberley的当前航空天气(METAR)的小部件吗?

显示HTML代码
报告变更